ARV weather

Lakeland-Noble F. Lee Memorial field
Minocqua-Woodruff, Wisconsin, United States

Public forecast

Using degrees Fahrenheit for public forecast. Weather courtesy of forecast.io.

Current aviation weather report (METAR) for Lakeland-Noble F. Lee Memorial field

Retrieved 2019/10/18 17:35 UTC (0 seconds ago):

KARV 181735Z AUTO 16014G19KT 10SM CLR 12/05 A2987 RMK AO2 T01200046

Closest aviation forecast (TAF) to Lakeland-Noble F. Lee Memorial field

Closest forecast is Rhinelander Oneida County Airport, 21.0 nm (38.8 km) SSE. Retrieved 2019/10/18 12:36 UTC (5 hours ago):

TAF KRHI 181134Z 1812/1912 15004KT P6SM SCT150 FM181400 17009G22KT P6SM SCT050 FM190100 17008G21KT P6SM SCT200 WS020/20045KT FM190900 18006G17KT P6SM BKN050 WS015/22030KT FM191100 19006G17KT P6SM -SHRA BKN029